Time;durP1;ratioP1;P1;durP2;ratioP2;P2;SDS_P1;SDS_P2;PMS_P1;PMS_P2;Temp;Humidity;BMP_temperature;BMP_pressure;BME280_temperature;BME280_humidity;BME280_pressure;Samples;Min_cycle;Max_cycle;Signal;HPM_P1;HPM_P2
2023/05/08 00:00:17;;;;;;;12.98;9.48;;;12.20;99.90;;;;;;5112537;28;20065;-70
2023/05/08 00:02:43;;;;;;;14.23;10.45;;;12.20;99.90;;;;;;5112344;28;20046;-70
2023/05/08 00:05:08;;;;;;;14.30;11.18;;;12.20;99.90;;;;;;5111149;28;20047;-70
2023/05/08 00:07:36;;;;;;;14.90;10.57;;;12.20;99.90;;;;;;5112118;28;20530;-70
2023/05/08 00:10:03;;;;;;;11.48;9.32;;;12.20;99.90;;;;;;5112136;28;20062;-70
2023/05/08 00:12:28;;;;;;;13.80;10.70;;;12.10;99.90;;;;;;5110727;28;20046;-70
2023/05/08 00:14:54;;;;;;;13.45;10.20;;;12.10;99.90;;;;;;5110842;28;20069;-70
2023/05/08 00:17:20;;;;;;;12.60;10.68;;;12.20;99.90;;;;;;5111815;28;20028;-70
2023/05/08 00:19:45;;;;;;;16.55;11.45;;;12.20;99.90;;;;;;5112198;28;20047;-70
2023/05/08 00:22:11;;;;;;;14.88;10.35;;;12.10;99.90;;;;;;5112028;28;20036;-70
2023/05/08 00:24:36;;;;;;;12.82;10.00;;;12.10;99.90;;;;;;5110961;28;20047;-70
2023/05/08 00:27:02;;;;;;;14.23;10.65;;;12.10;99.90;;;;;;5111762;28;20120;-70
2023/05/08 00:29:28;;;;;;;12.73;9.68;;;12.10;99.90;;;;;;5115682;28;20039;-70
2023/05/08 00:31:53;;;;;;;14.48;10.55;;;12.10;99.90;;;;;;5115981;28;20040;-70
2023/05/08 00:34:19;;;;;;;14.45;10.98;;;12.10;99.90;;;;;;5116065;28;20039;-70
2023/05/08 00:36:44;;;;;;;13.75;9.80;;;12.10;99.90;;;;;;5115948;28;20031;-70
2023/05/08 00:39:11;;;;;;;12.55;9.55;;;12.20;99.90;;;;;;5116000;28;20035;-70
2023/05/08 00:41:37;;;;;;;16.08;11.05;;;12.10;99.90;;;;;;5114566;28;20723;-70
2023/05/08 00:44:02;;;;;;;12.93;9.93;;;12.10;99.90;;;;;;5116193;28;20047;-70
2023/05/08 00:46:28;;;;;;;13.48;10.55;;;12.10;99.90;;;;;;5115937;28;20437;-70
2023/05/08 00:48:54;;;;;;;12.98;10.20;;;12.10;99.90;;;;;;5114748;28;20047;-70
2023/05/08 00:51:20;;;;;;;13.27;10.40;;;12.10;99.90;;;;;;5115628;28;20039;-70
2023/05/08 00:53:46;;;;;;;16.33;11.52;;;12.10;99.90;;;;;;5115651;28;20444;-70
2023/05/08 00:56:14;;;;;;;13.30;10.38;;;12.10;99.90;;;;;;5115547;28;20089;-70
2023/05/08 00:58:40;;;;;;;19.83;12.05;;;12.10;99.90;;;;;;5115762;28;20035;-70
2023/05/08 01:01:06;;;;;;;14.68;10.80;;;12.00;99.90;;;;;;5115545;28;20089;-70
2023/05/08 01:03:34;;;;;;;15.35;10.65;;;12.00;99.90;;;;;;5115594;28;20035;-70
2023/05/08 01:06:01;;;;;;;15.73;11.60;;;12.00;99.90;;;;;;5115513;28;20467;-70
2023/05/08 01:08:26;;;;;;;13.80;10.10;;;12.00;99.90;;;;;;5115271;28;20040;-70
2023/05/08 01:11:20;;;;;;;13.00;9.88;;;12.00;99.90;;;;;;5115303;28;20042;-70
2023/05/08 01:13:55;;;;;;;17.02;11.13;;;11.90;99.90;;;;;;5115553;28;20032;-70
2023/05/08 01:16:42;;;;;;;14.40;10.32;;;11.90;99.90;;;;;;5115360;28;20035;-70
2023/05/08 01:19:42;;;;;;;13.43;10.50;;;11.80;99.90;;;;;;5114245;28;20070;-70
2023/05/08 01:22:43;;;;;;;16.67;11.30;;;11.80;99.90;;;;;;5115087;28;20675;-70
2023/05/08 01:25:33;;;;;;;14.68;10.45;;;11.80;99.90;;;;;;5115102;28;20036;-70
2023/05/08 01:28:17;;;;;;;16.48;10.85;;;11.70;99.90;;;;;;5115158;28;20110;-70
2023/05/08 01:31:06;;;;;;;16.42;10.43;;;11.70;99.90;;;;;;5115114;28;20043;-71
2023/05/08 01:33:57;;;;;;;13.90;10.73;;;11.70;99.90;;;;;;5113591;28;20047;-70
2023/05/08 01:36:32;;;;;;;15.07;11.07;;;11.60;99.90;;;;;;5115173;28;20116;-70
2023/05/08 01:39:13;;;;;;;17.10;11.95;;;11.60;99.90;;;;;;5113144;28;20047;-70
2023/05/08 01:41:47;;;;;;;15.27;10.93;;;11.50;99.90;;;;;;5114873;28;20070;-70
2023/05/08 01:44:17;;;;;;;14.48;10.63;;;11.50;99.90;;;;;;5113514;28;20121;-70
2023/05/08 01:46:49;;;;;;;17.20;11.90;;;11.50;99.90;;;;;;5114717;28;20116;-70
2023/05/08 01:49:27;;;;;;;17.88;11.50;;;11.40;99.90;;;;;;5113689;28;20122;-70
2023/05/08 01:51:59;;;;;;;17.27;11.50;;;11.50;99.90;;;;;;5114465;28;20042;-70
2023/05/08 01:54:27;;;;;;;16.38;11.73;;;11.40;99.90;;;;;;5113349;28;20036;-70
2023/05/08 01:56:56;;;;;;;15.95;11.85;;;11.40;99.90;;;;;;5114308;28;20050;-70
2023/05/08 01:59:24;;;;;;;17.33;11.98;;;11.30;99.90;;;;;;5114696;28;20085;-70
2023/05/08 02:01:53;;;;;;;18.98;11.35;;;11.30;99.90;;;;;;5113145;28;20123;-70
2023/05/08 02:04:20;;;;;;;18.02;11.55;;;11.30;99.90;;;;;;5114780;28;20372;-70
2023/05/08 02:06:46;;;;;;;17.80;11.77;;;11.20;99.90;;;;;;5113017;28;20049;-70
2023/05/08 02:09:12;;;;;;;19.13;12.70;;;11.20;99.90;;;;;;5114263;28;20130;-70
2023/05/08 02:11:40;;;;;;;18.75;12.52;;;11.20;99.90;;;;;;5112905;28;20421;-70
2023/05/08 02:14:07;;;;;;;14.85;11.63;;;11.10;99.90;;;;;;5113119;28;20075;-70
2023/05/08 02:16:34;;;;;;;16.08;12.40;;;11.10;99.90;;;;;;5114184;28;20050;-70
2023/05/08 02:19:01;;;;;;;15.77;11.57;;;11.10;99.90;;;;;;5114141;28;20043;-70
2023/05/08 02:21:29;;;;;;;15.05;11.20;;;11.10;99.90;;;;;;5113941;28;20410;-70
2023/05/08 02:23:56;;;;;;;16.08;12.05;;;11.00;99.90;;;;;;5112677;28;20047;-70
2023/05/08 02:26:24;;;;;;;16.55;11.98;;;11.00;99.90;;;;;;5114063;28;20044;-70
2023/05/08 02:28:52;;;;;;;18.33;12.05;;;11.00;99.90;;;;;;5113929;28;20035;-70
2023/05/08 02:31:19;;;;;;;15.95;11.38;;;11.00;99.90;;;;;;5112517;28;20039;-70
2023/05/08 02:33:47;;;;;;;14.30;10.93;;;11.00;99.90;;;;;;5113837;28;20085;-70
2023/05/08 02:36:17;;;;;;;15.45;11.43;;;11.00;99.90;;;;;;5112519;28;20043;-70
2023/05/08 02:38:50;;;;;;;15.13;11.15;;;11.00;99.90;;;;;;5113833;28;20035;-70
2023/05/08 02:41:19;;;;;;;15.82;10.68;;;11.00;99.90;;;;;;5113938;28;20042;-70
2023/05/08 02:43:45;;;;;;;16.50;11.75;;;11.00;99.90;;;;;;5112426;28;20510;-70
2023/05/08 02:46:15;;;;;;;15.68;11.30;;;10.90;99.90;;;;;;5113403;28;20036;-70
2023/05/08 02:48:58;;;;;;;17.40;11.48;;;11.00;99.90;;;;;;5113365;28;20031;-70
2023/05/08 02:51:38;;;;;;;17.88;11.98;;;11.00;99.90;;;;;;5111007;28;20507;-70
2023/05/08 02:54:08;;;;;;;15.27;11.45;;;10.90;99.90;;;;;;5112008;28;20048;-70
2023/05/08 02:56:58;;;;;;;16.13;11.02;;;10.90;99.90;;;;;;5113271;28;20039;-70
2023/05/08 02:59:38;;;;;;;16.25;11.25;;;10.90;99.90;;;;;;5113592;28;20036;-70
2023/05/08 03:02:21;;;;;;;16.10;11.27;;;10.90;99.90;;;;;;5112238;28;20075;-70
2023/05/08 03:04:50;;;;;;;15.80;11.75;;;10.90;99.90;;;;;;5113359;28;20398;-70
2023/05/08 03:07:18;;;;;;;14.43;10.65;;;10.90;99.90;;;;;;5112939;28;20031;-70
2023/05/08 03:09:47;;;;;;;13.70;10.45;;;10.90;99.90;;;;;;5111753;28;20131;-70
2023/05/08 03:12:22;;;;;;;15.80;11.85;;;10.90;99.90;;;;;;5111772;28;20123;-70
2023/05/08 03:14:58;;;;;;;16.23;11.38;;;10.90;99.90;;;;;;5113177;28;20043;-70
2023/05/08 03:17:25;;;;;;;15.30;11.02;;;10.80;99.90;;;;;;5112975;28;20429;-70
2023/05/08 03:19:56;;;;;;;13.25;10.43;;;10.90;99.90;;;;;;5112895;28;20040;-70
2023/05/08 03:22:24;;;;;;;13.98;11.35;;;10.80;99.90;;;;;;5112876;28;20071;-70
2023/05/08 03:24:52;;;;;;;23.27;12.20;;;10.80;99.90;;;;;;5111866;28;20089;-70
2023/05/08 03:27:19;;;;;;;16.38;11.52;;;10.80;99.90;;;;;;5112695;28;20081;-70
2023/05/08 03:29:45;;;;;;;13.73;11.02;;;10.80;99.90;;;;;;5112735;28;20485;-70
2023/05/08 03:32:13;;;;;;;17.10;11.85;;;10.70;99.90;;;;;;5112697;28;20065;-70
2023/05/08 03:34:39;;;;;;;15.93;10.63;;;10.70;99.90;;;;;;5112474;28;20042;-70
2023/05/08 03:37:05;;;;;;;16.35;11.38;;;10.70;99.90;;;;;;5112263;28;20398;-70
2023/05/08 03:39:31;;;;;;;17.45;12.18;;;10.70;99.90;;;;;;5112599;28;20114;-70
2023/05/08 03:41:57;;;;;;;15.73;11.52;;;10.60;99.90;;;;;;5112478;28;20066;-70
2023/05/08 03:44:23;;;;;;;13.75;11.15;;;10.60;99.90;;;;;;5112388;28;20122;-70
2023/05/08 03:46:51;;;;;;;16.75;12.02;;;10.60;99.90;;;;;;5112215;28;20507;-70
2023/05/08 03:49:18;;;;;;;14.82;10.63;;;10.50;99.90;;;;;;5112369;28;20655;-70
2023/05/08 03:51:44;;;;;;;15.50;11.32;;;10.50;99.90;;;;;;5112223;28;20035;-70
2023/05/08 03:54:10;;;;;;;19.55;13.00;;;10.60;99.90;;;;;;5112473;28;20042;-70
2023/05/08 03:56:36;;;;;;;17.95;12.00;;;10.50;99.90;;;;;;5112220;28;20036;-70
2023/05/08 03:59:26;;;;;;;17.15;11.82;;;10.50;99.90;;;;;;5112269;28;20032;-70
2023/05/08 04:02:01;;;;;;;20.25;12.90;;;10.50;99.90;;;;;;5111115;28;20439;-70
2023/05/08 04:04:38;;;;;;;17.23;11.80;;;10.50;99.90;;;;;;5112236;28;20448;-70
2023/05/08 04:07:11;;;;;;;17.25;11.80;;;10.40;99.90;;;;;;5110970;28;20143;-70
2023/05/08 04:09:45;;;;;;;19.58;12.93;;;10.40;99.90;;;;;;5112246;28;20089;-70
2023/05/08 04:12:19;;;;;;;16.77;12.40;;;10.40;99.90;;;;;;5112060;28;20047;-70
2023/05/08 04:14:51;;;;;;;15.60;11.68;;;10.40;99.90;;;;;;5112123;28;20031;-70
2023/05/08 04:17:41;;;;;;;18.48;12.00;;;10.40;99.90;;;;;;5111960;28;20031;-70
2023/05/08 04:20:11;;;;;;;18.55;13.43;;;10.40;99.90;;;;;;5111566;28;20415;-70
2023/05/08 04:22:38;;;;;;;18.17;11.80;;;10.30;99.90;;;;;;5112196;28;20039;-70
2023/05/08 04:25:06;;;;;;;19.52;11.32;;;10.40;99.90;;;;;;5110599;28;20123;-70
2023/05/08 04:27:32;;;;;;;15.52;11.30;;;10.40;99.90;;;;;;5111897;28;20050;-70
2023/05/08 04:29:58;;;;;;;15.82;12.70;;;10.40;99.90;;;;;;5112000;28;20083;-70
2023/05/08 04:32:26;;;;;;;15.27;11.48;;;10.40;99.90;;;;;;5111946;28;20070;-70
2023/05/08 04:34:53;;;;;;;16.98;12.05;;;10.40;99.90;;;;;;5111849;28;20040;-70
2023/05/08 04:37:27;;;;;;;15.48;11.57;;;10.30;99.90;;;;;;5111858;28;20063;-70
2023/05/08 04:39:53;;;;;;;18.55;12.90;;;10.40;99.90;;;;;;5111880;28;20031;-70
2023/05/08 04:42:20;;;;;;;15.95;11.95;;;10.40;99.90;;;;;;5111962;28;20039;-70
2023/05/08 04:44:46;;;;;;;16.38;10.85;;;10.40;99.90;;;;;;5110764;28;20036;-70
2023/05/08 04:47:13;;;;;;;15.82;12.00;;;10.40;99.90;;;;;;5110524;28;20035;-70
2023/05/08 04:49:38;;;;;;;16.58;11.23;;;10.50;99.90;;;;;;5111727;28;20035;-70
2023/05/08 04:52:05;;;;;;;16.10;11.25;;;10.60;99.90;;;;;;5111693;28;20384;-70
2023/05/08 04:54:31;;;;;;;17.88;12.80;;;10.70;99.90;;;;;;5111980;28;20085;-70
2023/05/08 04:56:56;;;;;;;15.88;10.73;;;10.80;99.90;;;;;;5110508;28;20044;-70
2023/05/08 04:59:23;;;;;;;14.98;10.95;;;10.80;99.90;;;;;;5110711;28;20047;-70
2023/05/08 05:01:49;;;;;;;15.82;10.80;;;11.00;99.90;;;;;;5111682;28;20043;-70
2023/05/08 05:04:15;;;;;;;15.68;11.48;;;11.10;99.90;;;;;;5111352;28;20039;-70
2023/05/08 05:06:40;;;;;;;14.57;10.90;;;11.20;99.90;;;;;;5111655;28;20036;-70
2023/05/08 05:09:06;;;;;;;15.73;11.48;;;11.30;99.90;;;;;;5110662;28;20044;-70
2023/05/08 05:11:32;;;;;;;14.40;10.38;;;11.40;99.90;;;;;;5111500;28;21353;-70
2023/05/08 05:13:58;;;;;;;15.80;11.15;;;11.50;99.90;;;;;;5112307;28;20036;-70
2023/05/08 05:16:23;;;;;;;14.77;10.35;;;11.60;99.90;;;;;;5115186;28;20133;-70
2023/05/08 05:18:49;;;;;;;16.15;10.77;;;11.70;99.90;;;;;;5115050;28;20077;-70
2023/05/08 05:21:14;;;;;;;16.40;10.60;;;11.90;99.90;;;;;;5115420;28;20507;-70
2023/05/08 05:23:40;;;;;;;13.57;10.27;;;12.00;99.90;;;;;;5115379;28;20040;-70
2023/05/08 05:26:05;;;;;;;15.07;10.50;;;12.10;99.90;;;;;;5115188;28;20089;-70
2023/05/08 05:28:31;;;;;;;14.57;10.25;;;12.20;99.90;;;;;;5114998;28;20529;-70
2023/05/08 05:30:57;;;;;;;12.90;10.10;;;12.40;99.90;;;;;;5114878;28;20400;-70
2023/05/08 05:33:23;;;;;;;13.68;9.82;;;12.50;99.90;;;;;;5114672;28;20032;-70
2023/05/08 05:35:48;;;;;;;12.52;10.07;;;12.70;99.90;;;;;;5115085;28;20118;-70
2023/05/08 05:38:14;;;;;;;13.50;10.60;;;12.80;99.90;;;;;;5114923;28;20459;-70
2023/05/08 05:40:40;;;;;;;14.30;9.63;;;13.00;99.90;;;;;;5115030;28;20380;-70
2023/05/08 05:43:05;;;;;;;14.55;11.93;;;13.10;99.90;;;;;;5114819;28;20114;-70
2023/05/08 05:45:31;;;;;;;15.55;10.63;;;13.30;99.90;;;;;;5114711;28;20460;-70
2023/05/08 05:47:56;;;;;;;14.68;11.23;;;13.40;99.90;;;;;;5114497;28;20046;-70
2023/05/08 05:50:22;;;;;;;14.07;9.80;;;13.60;99.90;;;;;;5114863;28;20043;-70
2023/05/08 05:52:48;;;;;;;12.02;8.40;;;13.70;99.90;;;;;;5109445;28;20032;-70
2023/05/08 05:55:13;;;;;;;12.18;9.93;;;13.80;99.90;;;;;;5092650;28;20048;-70
2023/05/08 05:57:39;;;;;;;11.82;9.27;;;13.80;99.90;;;;;;5093010;28;20040;-70
2023/05/08 06:00:05;;;;;;;12.52;9.52;;;14.10;99.90;;;;;;5092438;28;20067;-70
2023/05/08 06:02:32;;;;;;;13.68;9.82;;;14.10;99.90;;;;;;5091859;28;20048;-70
2023/05/08 06:04:59;;;;;;;13.18;9.90;;;14.20;99.90;;;;;;5093861;28;20062;-70
2023/05/08 06:07:24;;;;;;;13.68;8.98;;;14.40;99.90;;;;;;5093783;28;20050;-70
2023/05/08 06:09:52;;;;;;;10.98;9.05;;;14.60;99.90;;;;;;5092565;28;20051;-70
2023/05/08 06:12:17;;;;;;;12.80;9.70;;;14.70;99.90;;;;;;5093894;28;20075;-71
2023/05/08 06:14:43;;;;;;;10.95;9.45;;;14.80;99.90;;;;;;5093881;28;20075;-70
2023/05/08 06:17:09;;;;;;;13.23;9.73;;;14.80;99.90;;;;;;5093394;28;20498;-70
2023/05/08 06:19:34;;;;;;;12.68;8.73;;;15.10;99.90;;;;;;5092765;28;20039;-70
2023/05/08 06:22:00;;;;;;;12.25;9.30;;;15.10;99.90;;;;;;5093806;28;20122;-70
2023/05/08 06:24:26;;;;;;;11.07;8.73;;;15.40;99.90;;;;;;5092619;28;20089;-71
2023/05/08 06:26:52;;;;;;;12.40;9.43;;;15.30;99.90;;;;;;5098547;28;20039;-70
2023/05/08 06:29:17;;;;;;;11.80;9.32;;;15.40;99.90;;;;;;5108791;28;20047;-69
2023/05/08 06:31:43;;;;;;;9.23;8.23;;;15.00;99.90;;;;;;5112233;28;20043;-70
2023/05/08 06:34:09;;;;;;;11.38;8.93;;;15.00;99.90;;;;;;5114459;28;20551;-69
2023/05/08 06:36:35;;;;;;;12.82;9.23;;;14.70;99.90;;;;;;5113753;28;20039;-69
2023/05/08 06:39:03;;;;;;;11.82;9.27;;;14.50;99.90;;;;;;5113643;28;20032;-71
2023/05/08 06:41:28;;;;;;;9.95;8.50;;;14.40;99.90;;;;;;5113730;28;20479;-70
2023/05/08 06:43:54;;;;;;;13.60;10.30;;;14.20;99.90;;;;;;5112383;28;20074;-70
2023/05/08 06:46:20;;;;;;;15.73;8.85;;;14.20;99.90;;;;;;5112251;28;20036;-69
2023/05/08 06:48:46;;;;;;;14.27;9.52;;;14.10;99.90;;;;;;5113711;28;20051;-69
2023/05/08 06:51:11;;;;;;;11.68;9.88;;;14.00;99.90;;;;;;5113569;28;20036;-69
2023/05/08 06:53:38;;;;;;;12.48;9.30;;;14.00;99.90;;;;;;5112180;28;20532;-69
2023/05/08 06:56:04;;;;;;;14.23;9.93;;;14.00;99.90;;;;;;5113427;28;20039;-69
2023/05/08 06:58:31;;;;;;;13.20;9.55;;;14.00;99.90;;;;;;5113276;28;20043;-69
2023/05/08 07:00:58;;;;;;;12.20;9.15;;;13.90;99.90;;;;;;5113263;28;20051;-69
2023/05/08 07:03:24;;;;;;;12.43;9.98;;;13.90;99.90;;;;;;5113405;28;20039;-69
2023/05/08 07:05:49;;;;;;;11.88;8.93;;;13.80;99.90;;;;;;5113292;28;20046;-69
2023/05/08 07:08:15;;;;;;;12.93;9.25;;;13.70;99.90;;;;;;5113113;28;20043;-69
2023/05/08 07:10:41;;;;;;;14.07;10.68;;;13.70;99.90;;;;;;5113113;28;20046;-69
2023/05/08 07:13:06;;;;;;;13.43;10.15;;;13.70;99.90;;;;;;5113008;28;20435;-69
2023/05/08 07:15:32;;;;;;;13.93;10.35;;;13.70;99.90;;;;;;5112847;28;20092;-70
2023/05/08 07:17:57;;;;;;;12.75;10.52;;;13.70;99.90;;;;;;5111585;28;20074;-70
2023/05/08 07:20:23;;;;;;;13.23;9.32;;;13.70;99.90;;;;;;5111993;28;20044;-70
2023/05/08 07:22:49;;;;;;;12.02;9.68;;;13.70;99.90;;;;;;5112789;28;20036;-70
2023/05/08 07:25:15;;;;;;;13.18;9.30;;;13.70;99.90;;;;;;5113105;28;20077;-70
2023/05/08 07:27:41;;;;;;;14.80;11.00;;;13.80;99.90;;;;;;5112776;28;20088;-69
2023/05/08 07:30:07;;;;;;;13.32;10.13;;;13.80;99.90;;;;;;5112572;28;20035;-70
2023/05/08 07:32:33;;;;;;;13.43;9.93;;;13.70;99.90;;;;;;5112898;28;20042;-70
2023/05/08 07:34:58;;;;;;;12.63;10.02;;;13.80;99.90;;;;;;5111552;28;20114;-70
2023/05/08 07:37:24;;;;;;;11.18;9.32;;;13.80;99.90;;;;;;5112214;28;20115;-70
2023/05/08 07:39:50;;;;;;;14.00;11.05;;;14.00;99.90;;;;;;5112669;28;20475;-70
2023/05/08 07:42:17;;;;;;;14.40;10.68;;;14.00;99.90;;;;;;5112486;28;20032;-70
2023/05/08 07:44:42;;;;;;;13.25;10.45;;;14.10;99.90;;;;;;5112381;28;20035;-69
2023/05/08 07:47:08;;;;;;;13.93;10.15;;;14.20;99.90;;;;;;5112373;28;20499;-70
2023/05/08 07:49:34;;;;;;;13.30;10.45;;;14.40;99.90;;;;;;5112521;28;20031;-70
2023/05/08 07:51:59;;;;;;;12.18;10.25;;;14.50;99.90;;;;;;5112290;28;20047;-69
2023/05/08 07:54:25;;;;;;;13.60;10.75;;;14.50;99.90;;;;;;5111190;28;20071;-70
2023/05/08 07:56:51;;;;;;;12.18;10.35;;;14.80;99.90;;;;;;5112151;28;20043;-70
2023/05/08 07:59:17;;;;;;;15.25;10.48;;;15.00;99.90;;;;;;5112193;28;20039;-70
2023/05/08 08:01:46;;;;;;;11.55;9.52;;;15.20;99.90;;;;;;5112209;28;20521;-69
2023/05/08 08:04:13;;;;;;;15.25;10.73;;;15.40;99.90;;;;;;5112203;28;20087;-69
2023/05/08 08:06:38;;;;;;;11.90;9.57;;;15.40;99.90;;;;;;5112100;28;20106;-69
2023/05/08 08:09:04;;;;;;;12.30;9.57;;;15.40;99.90;;;;;;5112228;28;20147;-69
2023/05/08 08:11:30;;;;;;;14.18;11.30;;;15.40;99.90;;;;;;5111983;28;20118;-70
2023/05/08 08:13:56;;;;;;;14.30;11.82;;;15.40;99.90;;;;;;5111139;28;20548;-69
2023/05/08 08:16:21;;;;;;;13.13;10.75;;;15.40;99.90;;;;;;5110758;28;20035;-70
2023/05/08 08:18:47;;;;;;;16.10;10.98;;;15.50;99.90;;;;;;5112158;28;20039;-69
2023/05/08 08:21:12;;;;;;;15.45;11.82;;;15.80;99.90;;;;;;5112203;28;20540;-69
2023/05/08 08:23:38;;;;;;;14.98;11.13;;;16.00;99.90;;;;;;5112133;28;20096;-70
2023/05/08 08:26:03;;;;;;;13.40;11.18;;;16.00;99.90;;;;;;5110883;28;20044;-70
2023/05/08 08:28:29;;;;;;;15.02;10.52;;;15.90;99.90;;;;;;5110774;28;20452;-70
2023/05/08 08:30:55;;;;;;;14.98;10.70;;;15.80;99.90;;;;;;5111859;28;20043;-70
2023/05/08 08:33:20;;;;;;;16.75;10.73;;;15.90;99.90;;;;;;5110708;28;20032;-70
2023/05/08 08:35:46;;;;;;;13.55;10.93;;;15.90;99.90;;;;;;5111913;28;20499;-70
2023/05/08 08:38:12;;;;;;;15.63;12.88;;;15.90;99.90;;;;;;5111872;28;20039;-70
2023/05/08 08:40:39;;;;;;;14.68;11.85;;;15.90;99.90;;;;;;5111961;28;20088;-69
2023/05/08 08:43:05;;;;;;;13.10;10.82;;;16.10;99.90;;;;;;5111747;28;20460;-70
2023/05/08 08:45:31;;;;;;;15.07;11.43;;;16.30;99.90;;;;;;5111936;28;20039;-70
2023/05/08 08:48:00;;;;;;;14.15;11.55;;;16.30;99.90;;;;;;5111711;28;20112;-69
2023/05/08 08:50:29;;;;;;;15.50;12.80;;;16.50;99.90;;;;;;5113994;28;20153;-70
2023/05/08 08:53:20;;;;;;;14.05;11.88;;;16.70;99.90;;;;;;5114622;28;20406;-70
2023/05/08 08:55:51;;;;;;;14.48;11.65;;;16.80;99.90;;;;;;5115932;28;20076;-70
2023/05/08 08:58:32;;;;;;;14.20;11.85;;;16.80;99.90;;;;;;5115651;28;20410;-70
2023/05/08 09:00:59;;;;;;;16.20;12.02;;;16.80;99.90;;;;;;5115828;28;20047;-69
2023/05/08 09:03:26;;;;;;;15.25;13.07;;;16.90;99.90;;;;;;5115603;28;20043;-70
2023/05/08 09:05:52;;;;;;;14.23;11.63;;;17.00;99.90;;;;;;5115395;28;20035;-70
2023/05/08 09:08:18;;;;;;;14.50;11.82;;;17.10;99.90;;;;;;5115601;28;20040;-70
2023/05/08 09:10:44;;;;;;;14.93;11.88;;;17.10;99.90;;;;;;5114259;28;20050;-70
2023/05/08 09:13:10;;;;;;;13.80;11.68;;;17.20;99.90;;;;;;5114004;28;20119;-70
2023/05/08 09:15:36;;;;;;;15.05;11.55;;;17.30;99.90;;;;;;5114046;28;20118;-70
2023/05/08 09:18:01;;;;;;;15.75;11.77;;;17.50;99.90;;;;;;5113928;28;20028;-70
2023/05/08 09:20:28;;;;;;;15.07;12.32;;;17.50;99.90;;;;;;5113939;28;20059;-69
2023/05/08 09:22:54;;;;;;;17.25;12.68;;;17.60;99.90;;;;;;5115398;28;20063;-70
2023/05/08 09:25:20;;;;;;;15.85;12.18;;;17.60;99.90;;;;;;5115070;28;20506;-70
2023/05/08 09:27:46;;;;;;;16.08;12.20;;;17.50;99.90;;;;;;5113701;28;20039;-70
2023/05/08 09:30:13;;;;;;;15.05;12.05;;;17.40;99.90;;;;;;5114035;28;20040;-70
2023/05/08 09:32:41;;;;;;;16.23;12.50;;;17.40;99.90;;;;;;5113805;28;20039;-70
2023/05/08 09:35:08;;;;;;;19.42;12.55;;;17.40;99.90;;;;;;5114903;28;20036;-70
2023/05/08 09:37:36;;;;;;;19.13;15.00;;;17.60;99.90;;;;;;5115038;28;20039;-70
2023/05/08 09:40:19;;;;;;;19.25;15.50;;;17.60;99.90;;;;;;5113691;28;20078;-70
2023/05/08 09:42:47;;;;;;;16.73;13.35;;;17.60;99.90;;;;;;5114862;28;20111;-70
2023/05/08 09:45:45;;;;;;;15.50;12.48;;;17.70;99.90;;;;;;5113647;28;20039;-69
2023/05/08 09:48:10;;;;;;;15.35;12.40;;;17.80;99.90;;;;;;5080228;28;20043;-70
2023/05/08 09:50:36;;;;;;;18.13;14.10;;;17.90;99.90;;;;;;5114843;28;20038;-70
2023/05/08 09:53:02;;;;;;;17.95;14.32;;;18.00;99.90;;;;;;5114522;28;20495;-70
2023/05/08 09:55:45;;;;;;;18.48;13.25;;;18.20;99.90;;;;;;5113249;28;20544;-70
2023/05/08 09:58:11;;;;;;;17.23;14.65;;;18.30;99.90;;;;;;5114719;28;20046;-70
2023/05/08 10:00:38;;;;;;;18.70;14.52;;;18.40;99.90;;;;;;5113301;28;20614;-70
2023/05/08 10:03:04;;;;;;;13.68;11.55;;;18.60;99.90;;;;;;5114547;28;20440;-70
2023/05/08 10:05:33;;;;;;;17.75;13.52;;;18.60;99.90;;;;;;5114443;28;20064;-70
2023/05/08 10:08:20;;;;;;;17.08;13.57;;;18.70;99.90;;;;;;5114247;28;20044;-70
2023/05/08 10:10:46;;;;;;;20.58;13.35;;;18.60;99.90;;;;;;5114506;28;20095;-70
2023/05/08 10:13:12;;;;;;;19.58;14.32;;;18.70;99.90;;;;;;5114399;28;20031;-71
2023/05/08 10:15:41;;;;;;;16.73;13.50;;;18.70;99.90;;;;;;5112806;28;20035;-70
2023/05/08 10:18:08;;;;;;;16.60;13.13;;;18.70;99.90;;;;;;5112776;28;20513;-70
2023/05/08 10:20:37;;;;;;;18.90;14.57;;;18.70;99.90;;;;;;5114154;28;20048;-70
2023/05/08 10:23:06;;;;;;;19.13;14.82;;;18.70;99.90;;;;;;5112934;28;20077;-70
2023/05/08 10:25:33;;;;;;;19.45;15.30;;;18.90;99.90;;;;;;5114065;28;20046;-70
2023/05/08 10:28:10;;;;;;;20.55;15.95;;;18.90;99.90;;;;;;5112757;28;20046;-70
2023/05/08 10:30:39;;;;;;;16.60;13.57;;;18.90;99.90;;;;;;5112905;28;20044;-70
2023/05/08 10:33:08;;;;;;;18.63;14.80;;;18.90;99.90;;;;;;5113838;28;20046;-70
2023/05/08 10:35:36;;;;;;;18.17;14.75;;;19.00;99.90;;;;;;5113997;28;20088;-70
2023/05/08 10:38:03;;;;;;;20.77;15.48;;;19.00;99.90;;;;;;5113899;28;20032;-71
2023/05/08 10:40:29;;;;;;;20.10;16.10;;;18.90;99.90;;;;;;5112576;28;20079;-71
2023/05/08 10:42:56;;;;;;;16.83;13.98;;;19.10;99.90;;;;;;5112777;28;20094;-70
2023/05/08 10:45:23;;;;;;;19.75;15.25;;;19.10;99.90;;;;;;5113642;28;20043;-71
2023/05/08 10:48:07;;;;;;;18.88;15.57;;;19.00;99.90;;;;;;5112395;28;20403;-70
2023/05/08 10:51:01;;;;;;;20.85;16.17;;;19.10;99.90;;;;;;5113717;28;20035;-70
2023/05/08 10:53:52;;;;;;;18.20;14.38;;;19.20;99.90;;;;;;5113406;28;20039;-70
2023/05/08 10:56:25;;;;;;;18.88;14.68;;;19.20;99.90;;;;;;5111857;28;20114;-70
2023/05/08 10:58:55;;;;;;;21.73;16.00;;;19.40;99.90;;;;;;5113282;28;20411;-71
2023/05/08 11:01:20;;;;;;;20.48;16.70;;;19.40;99.90;;;;;;5111874;28;20051;-71
2023/05/08 11:03:50;;;;;;;18.80;15.02;;;19.50;99.90;;;;;;5113326;28;20051;-71
2023/05/08 11:06:36;;;;;;;19.73;15.52;;;19.50;99.90;;;;;;5113236;28;20043;-71
2023/05/08 11:09:02;;;;;;;20.75;16.67;;;19.40;99.90;;;;;;5111575;28;20039;-70
2023/05/08 11:11:32;;;;;;;19.17;16.13;;;19.60;99.90;;;;;;5110859;28;20039;-71
2023/05/08 11:14:08;;;;;;;18.48;15.88;;;19.60;99.90;;;;;;5113033;28;20047;-71
2023/05/08 11:16:52;;;;;;;19.88;16.10;;;19.70;99.90;;;;;;5110673;28;20045;-70
2023/05/08 11:19:23;;;;;;;20.00;15.88;;;19.70;99.90;;;;;;5112550;28;20096;-71
2023/05/08 11:22:13;;;;;;;20.58;16.50;;;19.60;99.90;;;;;;5112049;28;20046;-71
2023/05/08 11:24:46;;;;;;;21.65;17.45;;;19.70;99.90;;;;;;5111050;28;20410;-70
2023/05/08 11:27:13;;;;;;;23.23;17.23;;;19.80;99.90;;;;;;5111680;28;20046;-70
2023/05/08 11:29:38;;;;;;;21.60;16.88;;;19.70;99.90;;;;;;5110611;28;20048;-71
2023/05/08 11:32:04;;;;;;;19.73;15.98;;;19.70;99.90;;;;;;5110455;28;20051;-71
2023/05/08 11:34:48;;;;;;;24.67;16.92;;;19.80;99.90;;;;;;5112079;28;20031;-71
2023/05/08 11:37:18;;;;;;;23.13;17.95;;;19.80;99.90;;;;;;5110230;28;20107;-71
2023/05/08 11:39:45;;;;;;;24.60;17.48;;;20.00;99.90;;;;;;5103086;28;20059;-71
2023/05/08 11:42:25;;;;;;;21.25;17.35;;;20.00;99.90;;;;;;5097392;28;20047;-71
2023/05/08 11:45:12;;;;;;;21.23;16.92;;;20.10;99.90;;;;;;5092338;28;20048;-71
2023/05/08 11:47:40;;;;;;;20.52;15.82;;;20.00;99.90;;;;;;5092097;28;20051;-71
2023/05/08 11:50:10;;;;;;;20.92;15.98;;;20.00;99.90;;;;;;5091049;28;20048;-71
2023/05/08 11:52:37;;;;;;;21.42;17.33;;;20.20;99.90;;;;;;5091763;28;20040;-71
2023/05/08 11:55:05;;;;;;;22.27;16.92;;;20.20;99.90;;;;;;5092148;28;20043;-70
2023/05/08 11:57:33;;;;;;;22.42;16.83;;;20.30;99.90;;;;;;5091903;28;20035;-68
2023/05/08 12:00:09;;;;;;;23.48;17.60;;;20.30;99.90;;;;;;5090896;28;20110;-68
2023/05/08 12:02:35;;;;;;;19.73;15.60;;;20.30;99.90;;;;;;5091961;28;20051;-68
2023/05/08 12:05:02;;;;;;;19.55;16.13;;;20.40;99.90;;;;;;5091775;28;20067;-69
2023/05/08 12:07:27;;;;;;;19.15;15.25;;;20.50;99.90;;;;;;5091804;28;20093;-68
2023/05/08 12:09:53;;;;;;;20.38;16.63;;;20.50;99.90;;;;;;5092232;28;20036;-68
2023/05/08 12:12:18;;;;;;;20.40;16.63;;;20.40;99.90;;;;;;5091900;28;20071;-68
2023/05/08 12:14:49;;;;;;;26.13;18.42;;;20.30;99.90;;;;;;5091919;28;20384;-68
2023/05/08 12:17:17;;;;;;;22.10;17.02;;;20.40;99.90;;;;;;5091708;28;20040;-68
2023/05/08 12:19:43;;;;;;;18.42;14.10;;;20.50;99.90;;;;;;5091827;28;20119;-69
2023/05/08 12:22:08;;;;;;;21.27;15.90;;;20.70;99.90;;;;;;5090442;28;20122;-68
2023/05/08 12:24:34;;;;;;;20.88;16.30;;;20.70;99.90;;;;;;5095432;28;20040;-68
2023/05/08 12:26:59;;;;;;;21.70;14.70;;;20.80;99.90;;;;;;5094484;28;20044;-69
2023/05/08 12:29:25;;;;;;;21.27;16.15;;;20.90;99.90;;;;;;5095835;28;20050;-69
2023/05/08 12:31:52;;;;;;;20.13;14.98;;;20.90;99.90;;;;;;5095709;28;20032;-69
2023/05/08 12:34:19;;;;;;;20.67;14.77;;;21.00;99.90;;;;;;5095762;28;20040;-69
2023/05/08 12:36:44;;;;;;;19.48;14.45;;;21.20;99.90;;;;;;5094140;28;20077;-69